Mesa Verde, CO (81330)

3:52 AM MDT on August 31, 2014 (GMT -0600)
Cortez Municipal | Change Station
CLOSE
Current Station
Airport
Location: Cortez,
Elevation: 5915 ft
Nearby Weather Stations

Elev 5915 ft 37.31 °N, 108.63 °W | Updated 59 minutes ago

Clear
Clear
55 °F
Feels Like 55 °F
N
8
Wind Variable Wind from ENE

Today
High -- | Low -- °F
--% Chance of Precip.
Yesterday
High -- | Low -- °F
Precip. -- in
6:43 AM 7:43 PM
Waxing Crescent, 29% visible
Pressure 29.81 in
Visibility 10.0 miles
Clouds Clear
Dew Point 43 °F
Humidity 64%
Rainfall 0.00 in
Snow Depth Not available.
UV 0 out of 12
Pollen 8.90 out of 12
Air Quality Not available.
Flu Activity Not available.
METAR KCEZ 310853Z AUTO 07007KT 10SM CLR 13/06 A3006 RMK AO2 SLP095 T01280061 55000 $

More Conditions Fewer Conditions

Pressure 29.81 in
Visibility 10.0 miles
Clouds Clear
Dew Point 43 °F
Humidity 64%
Rainfall 0.00 in
Snow Depth Not available.
UV 0 out of 12
Pollen 8.90 out of 12
Air Quality Not available.
Flu Activity Not available.
METAR KCEZ 310853Z AUTO 07007KT 10SM CLR 13/06 A3006 RMK AO2 SLP095 T01280061 55000 $

More Conditions Fewer Conditions

10-Day Weather Forecast

Almanac

Astronomy

Aug. 31, 2014 Rise Set
Actual Time 6:43 AM MDT 7:43 PM MDT
Civil Twilight 6:17 AM MDT 8:10 PM MDT
Nautical Twilight 5:45 AM MDT 8:42 PM MDT
Astronomical Twilight 5:12 AM MDT 9:14 PM MDT
Moon 12:25 PM MDT 11:09 PM MDT
Length of Visible Light 13h 53m
Length of Day
13h 00m
Tomorrow will be 2m 16s shorter.
Waxing Crescent, 29% of the Moon is Illuminated
Today
Waxing Crescent
Sep 2
First Quarter
Sep 8
Full
Sep 15
Last Quarter
Sep 24
New

Today's Extremes

State Highs State Lows

Community

WunderPhotos

Upload Photos

1,748,834 photos uploaded!

Nearby

Snow Depth

Station Depth Elevation
Sharkstooth 0 in 10720 ft
Columbus Basin 0 in 10785 ft
Scotch Creek 0 in 9100 ft
El Diente Peak 1 in 10200 ft
Cascade 0 in 8880 ft

Earthquake Activity

City Distance Mag. Time & Date
No recent earthquake activity has been reported nearby.
Minimum magnitude displayed is 2.5.

Coastal Water Temperatures

Place Temperature
No Stations Reporting

Nearby Weather Stations